Date,TemperatureHighF,TemperatureAvgF,TemperatureLowF,DewpointHighF,DewpointAvgF,DewpointLowF,HumidityHigh,HumidityAvg,HumidityLow,PressureMaxIn,PressureMinIn,WindSpeedMaxMPH,WindSpeedAvgMPH,GustSpeedMaxMPH,PrecipitationSumIn
2013-1-1,50.5,41.3,36.1,41.5,35.1,31.4,86,79,65,29.87,29.25,11,5,18,0.00
2013-1-2,54.0,47.9,41.4,50.5,43.6,35.0,90,85,78,29.98,29.88,13,5,21,0.00
2013-1-3,54.3,53.0,51.3,49.6,47.4,44.1,87,81,76,30.37,29.98,14,7,24,0.00
2013-1-4,55.0,52.2,49.6,48.9,46.4,43.1,85,81,73,30.44,30.35,14,7,23,0.00
2013-1-5,53.2,51.8,48.6,47.5,45.3,42.7,83,79,74,30.43,30.25,11,6,19,0.00
2013-1-6,50.5,46.4,41.9,46.4,42.3,37.5,90,86,81,30.41,30.17,7,2,11,0.00
2013-1-7,50.5,49.4,48.4,47.7,46.2,44.2,92,89,82,30.17,29.99,6,1,11,0.00
2013-1-8,54.3,48.7,41.7,52.9,45.7,37.8,95,89,82,30.13,29.95,15,3,24,0.00
2013-1-9,50.9,42.3,37.6,46.9,38.4,34.0,93,86,78,30.13,30.03,8,3,13,0.00
2013-1-10,44.8,39.6,34.2,42.4,36.7,31.0,92,89,86,30.03,29.93,4,1,8,0.00
2013-1-11,43.9,41.1,38.5,41.7,38.6,35.8,92,91,89,30.01,29.96,4,0,8,0.00
2013-1-12,44.2,39.3,35.2,38.5,34.6,29.7,90,83,77,30.12,29.94,5,2,9,0.00
2013-1-13,38.8,37.4,36.0,35.6,33.1,31.2,88,85,80,30.13,29.96,7,1,10,0.00
2013-1-14,44.6,37.9,33.6,40.1,33.8,28.1,91,85,78,29.96,29.70,4,2,9,0.00
2013-1-15,43.2,35.4,29.5,38.7,30.9,25.3,88,84,77,29.91,29.79,4,1,7,0.00
2013-1-16,36.9,32.5,27.0,31.7,27.3,23.1,88,81,73,29.97,29.84,4,1,6,0.00
2013-1-17,39.0,35.9,34.7,28.3,26.6,24.7,73,69,58,29.99,29.86,11,3,17,0.00
2013-1-18,41.7,37.9,35.6,32.1,29.3,26.8,82,71,62,29.70,29.58,19,9,28,0.00
2013-1-19,40.6,37.9,32.0,35.3,29.0,-99.9,84,75,65,29.73,29.59,103,7,157,0.00
2013-1-20,37.9,37.1,35.8,28.5,27.0,25.3,71,67,62,29.70,29.55,13,5,20,0.00
2013-1-21,60.6,39.6,37.0,59.5,31.5,28.1,96,73,67,29.54,29.52,8,6,104,0.00
2013-1-22,39.4,38.5,36.9,35.5,34.7,32.8,87,86,83,29.84,29.62,14,6,23,0.00
2013-1-23,37.9,37.1,36.3,33.6,32.9,32.0,86,85,84,29.85,29.83,4,1,10,0.00
2013-1-24,40.5,37.3,34.9,37.8,33.0,29.9,90,84,73,30.05,29.96,6,2,10,0.00
2013-1-25,38.7,37.3,35.1,34.8,31.6,29.2,88,80,71,29.95,29.35,7,3,11,0.00
2013-1-26,48.0,40.7,35.6,41.7,35.8,32.2,89,83,72,29.51,28.95,10,4,20,0.00
2013-1-27,50.2,44.1,40.3,46.0,38.8,34.8,87,81,71,29.16,28.72,21,10,27,0.00
2013-1-28,48.2,44.2,40.5,43.6,37.8,34.5,85,78,69,29.29,28.84,20,10,34,0.00
2013-1-29,52.5,47.3,45.1,50.0,41.3,35.5,91,80,64,29.28,28.91,27,9,45,0.00
2013-1-30,50.0,45.4,40.3,41.1,36.0,32.1,84,70,59,29.58,29.05,20,12,32,0.00
2013-1-31,46.0,42.6,41.2,42.7,37.6,33.0,88,82,71,29.60,29.18,14,5,25,0.00
2013-2-1,43.2,42.0,39.7,39.0,37.8,35.7,86,85,84,29.41,29.31,11,6,18,0.00
2013-2-2,51.1,37.8,30.7,37.7,29.0,25.4,84,72,48,30.15,29.78,5,2,9,0.00
2013-2-3,54.7,45.7,37.2,45.7,38.9,31.0,85,77,63,29.98,29.40,17,9,29,0.00
2013-2-4,51.1,40.9,34.2,46.4,34.3,29.8,85,78,65,29.49,29.24,18,9,30,0.11
2013-2-5,48.7,39.9,32.9,41.5,34.2,28.9,86,80,69,29.54,28.99,18,6,31,0.02
2013-2-6,47.5,40.5,35.8,35.2,29.5,25.4,74,65,51,30.08,29.53,9,4,19,0.00
2013-2-7,46.9,37.7,31.1,36.3,29.3,23.3,79,72,62,30.08,29.97,5,1,11,0.00
2013-2-8,50.4,40.8,34.3,39.5,33.2,29.6,87,75,59,30.13,30.02,8,2,14,0.02
2013-2-9,44.2,41.2,38.7,40.1,36.1,34.3,87,82,77,30.09,29.80,8,1,13,0.01
2013-2-10,41.9,40.8,39.4,37.4,34.7,32.1,86,79,71,29.80,29.42,18,8,27,0.02
2013-2-11,46.8,41.5,39.7,36.6,32.1,27.3,86,70,58,29.94,29.50,15,8,26,0.01
2013-2-12,40.6,39.9,38.7,29.5,28.6,27.4,68,64,61,30.08,29.94,10,5,17,0.00
2013-2-13,43.0,38.1,34.7,39.7,31.9,25.0,88,78,61,30.07,29.49,11,5,16,0.26
2013-2-14,54.9,45.7,38.8,48.7,40.3,35.6,92,82,64,29.75,29.50,13,5,22,0.00
2013-2-15,59.2,45.8,37.9,46.8,38.2,32.1,90,76,53,30.09,29.75,8,2,12,0.00
2013-2-16,50.7,42.3,34.2,44.4,37.3,29.5,89,82,74,30.10,30.07,2,0,4,0.00
2013-2-17,54.9,45.7,32.7,43.3,37.9,27.1,85,75,56,30.11,30.03,6,1,11,0.00
2013-2-18,52.7,38.0,29.3,43.6,30.5,25.4,89,75,53,30.10,30.05,3,1,4,0.00
2013-2-19,49.6,38.8,28.6,41.9,33.3,24.7,89,81,69,30.14,30.07,4,1,8,0.00
2013-2-20,45.5,41.9,36.9,40.2,35.6,28.1,88,78,67,30.33,30.13,9,5,16,0.00
2013-2-21,40.8,38.7,37.2,28.1,26.7,23.7,67,62,57,30.33,30.28,12,5,21,0.00
2013-2-22,40.5,37.5,36.3,26.0,23.7,21.3,63,57,53,30.31,30.27,8,3,14,0.00
2013-2-23,45.7,38.3,34.5,32.5,27.5,23.6,78,65,52,30.38,30.24,4,1,8,0.01
2013-2-24,47.8,39.5,34.9,40.9,33.3,29.0,83,79,67,30.47,30.37,6,1,11,0.06
2013-2-25,51.8,39.8,31.6,43.8,33.2,27.8,90,78,58,30.63,30.47,4,1,8,0.00
2013-2-26,54.7,41.0,31.3,45.5,34.2,26.1,91,78,55,30.69,30.62,7,2,11,0.01
2013-2-27,56.1,39.5,30.0,43.1,32.4,26.1,89,77,57,30.68,30.56,4,1,6,0.00
2013-2-28,55.6,41.4,30.0,43.1,34.3,25.7,88,76,59,30.57,30.49,4,1,6,0.00
2013-3-1,57.2,43.6,32.2,39.8,33.0,25.9,82,67,48,30.54,30.41,6,1,9,0.01
2013-3-2,64.8,46.7,31.8,44.9,36.6,26.2,87,69,46,30.41,30.23,8,2,11,0.00
2013-3-3,52.5,46.9,44.6,43.4,38.9,35.9,82,74,63,30.25,30.08,7,1,10,0.00
2013-3-4,50.2,44.3,36.3,36.8,34.7,29.4,78,69,58,30.08,29.73,8,2,11,0.00
2013-3-5,53.2,40.7,32.2,42.8,33.3,26.9,88,75,56,29.72,29.62,4,1,8,0.00
2013-3-6,45.1,42.1,36.0,38.4,36.1,30.1,83,79,77,29.72,29.66,6,2,11,0.00
2013-3-7,45.5,44.0,42.8,42.4,40.1,37.4,89,86,80,29.66,29.58,11,5,23,0.15
2013-3-8,43.2,41.8,40.5,39.0,37.9,36.1,91,86,78,29.73,29.59,12,7,22,0.12
2013-3-9,41.5,40.6,39.6,38.3,37.1,33.2,91,87,73,29.85,29.73,7,4,18,0.08
2013-3-10,44.2,37.0,30.9,34.7,27.7,22.5,81,69,59,30.11,29.91,12,4,21,0.06
2013-3-11,39.7,31.8,26.4,29.7,21.9,16.1,78,67,51,30.13,30.10,9,3,16,0.06
2013-3-12,48.7,37.0,26.4,32.6,25.6,17.0,73,63,52,30.11,29.87,6,2,11,0.00
2013-3-13,50.4,39.2,32.0,33.3,26.3,21.6,78,61,40,29.97,29.84,5,2,12,0.00
2013-3-14,46.6,38.9,30.2,37.5,31.5,22.1,81,74,66,29.96,29.56,8,3,14,0.00
2013-3-15,52.3,44.3,33.1,42.9,36.1,27.0,81,73,59,29.56,29.33,11,4,17,0.04
2013-3-16,42.3,37.4,30.7,38.8,33.6,25.9,88,86,79,29.36,29.14,8,2,14,0.11
2013-3-17,45.7,41.2,34.5,40.8,36.9,30.9,88,85,76,29.28,29.11,12,4,19,0.09
2013-3-18,42.6,39.3,35.4,39.0,34.6,30.5,87,83,80,29.52,29.28,12,6,20,0.06
2013-3-19,37.9,36.9,35.6,35.0,32.9,30.7,89,85,81,29.67,29.52,10,5,20,0.40
2013-3-20,74.3,38.8,35.6,49.7,33.1,29.0,88,80,42,30.05,29.68,123,8,194,0.05
2013-3-21,46.8,41.1,38.5,35.8,30.8,27.8,81,67,58,30.10,30.05,17,9,27,0.05
2013-3-22,40.1,38.1,36.5,32.8,29.5,27.3,81,71,65,30.08,30.01,21,14,37,0.01
2013-3-23,40.8,37.0,36.3,30.4,27.3,23.5,74,68,58,30.23,30.07,21,13,34,0.00
2013-3-24,38.7,37.5,36.5,27.1,24.8,22.7,65,60,56,30.32,30.21,18,10,27,0.00
2013-3-25,39.9,37.9,36.7,27.4,25.6,23.8,68,61,57,30.32,30.26,11,6,21,0.00
2013-3-26,42.8,37.6,33.8,31.9,27.1,21.3,75,66,58,30.27,30.16,12,4,21,0.02
2013-3-27,44.8,37.5,33.6,34.9,28.3,25.2,79,70,54,30.17,30.09,9,3,16,0.05
2013-3-28,49.6,41.1,34.3,34.3,29.0,25.1,79,63,47,30.11,30.04,10,3,14,0.01
2013-3-29,47.1,38.0,31.3,33.9,27.9,23.3,80,67,51,30.04,29.93,10,2,14,0.02
2013-3-30,48.7,36.6,27.5,32.2,25.7,19.9,77,65,46,30.01,29.94,5,1,10,0.00
2013-3-31,49.5,37.3,25.2,35.7,24.8,19.5,85,62,39,30.02,29.99,8,3,15,0.00
2013-4-1,46.2,39.7,34.5,26.3,24.1,22.8,63,54,44,30.09,30.00,8,4,13,0.00
2013-4-2,49.8,41.2,33.6,32.1,27.5,22.1,75,58,44,30.24,30.09,10,2,13,0.00
2013-4-3,53.8,41.9,29.5,36.7,28.7,22.6,82,61,40,30.30,30.24,8,2,11,0.00
2013-4-4,54.0,44.3,36.9,36.3,31.6,25.8,77,62,35,30.28,30.22,8,2,16,0.01
2013-4-5,48.9,41.9,31.5,34.5,29.5,22.7,79,62,47,30.25,30.21,7,2,12,0.01
2013-4-6,59.9,42.1,27.3,38.9,28.3,21.7,84,61,33,30.25,30.15,11,3,14,0.00
2013-4-7,42.1,39.7,37.9,37.3,33.9,29.5,85,80,67,30.18,30.01,6,2,11,0.07
2013-4-8,50.4,42.2,38.3,35.8,32.1,25.6,86,69,52,30.00,29.75,12,6,21,0.04
2013-4-9,52.3,44.1,37.8,33.4,29.0,24.7,70,56,42,29.75,29.67,11,6,21,0.01
2013-4-10,46.6,42.6,39.2,38.2,35.2,31.1,84,75,70,29.71,29.59,9,4,14,0.00
2013-4-11,51.3,43.6,39.7,41.0,36.3,32.7,84,76,64,29.60,29.42,9,5,17,0.00
2013-4-12,48.9,43.9,40.5,39.2,35.9,32.9,79,73,67,29.63,29.38,8,3,11,0.00
2013-4-13,58.1,47.5,40.6,45.0,39.7,34.7,85,75,58,29.74,29.45,11,4,18,0.02
2013-4-14,63.0,55.6,49.1,50.7,46.6,43.3,84,72,55,29.47,29.37,23,10,36,0.06
2013-4-15,62.6,54.1,50.2,47.6,44.1,41.5,81,69,49,29.72,29.43,21,9,40,0.15
2013-4-16,58.3,51.9,47.5,45.0,41.7,34.6,83,69,45,29.78,29.34,30,12,46,0.02
2013-4-17,55.2,47.5,41.9,51.1,40.5,33.7,89,77,64,29.81,29.08,14,5,26,0.20
2013-4-18,57.4,51.7,44.2,46.2,41.8,34.5,85,69,55,29.87,29.04,24,10,40,0.01
2013-4-19,57.2,43.7,37.6,39.1,34.4,30.7,79,70,48,30.27,29.86,4,2,9,0.00
2013-4-21,60.1,51.2,44.1,44.3,39.5,35.0,75,65,44,30.12,29.80,18,7,29,0.00
2013-4-22,60.8,50.5,41.7,47.9,40.0,35.2,81,68,50,29.81,29.52,20,8,33,0.00
2013-4-23,62.4,53.5,47.5,43.3,39.3,35.1,76,60,41,30.01,29.66,21,9,30,0.00
2013-4-24,63.3,52.8,46.4,52.1,40.9,32.2,89,66,42,30.18,29.85,11,3,18,0.20
2013-4-25,58.8,48.8,41.9,41.7,36.7,32.1,72,63,49,30.18,29.97,12,5,21,0.00
2013-4-26,56.5,45.1,37.4,41.9,35.7,31.8,82,70,49,29.99,29.81,11,3,22,0.08
2013-4-27,60.8,48.3,37.8,38.6,33.4,26.8,81,59,33,30.10,29.96,11,3,20,0.00
2013-4-28,61.9,50.0,40.6,44.4,36.9,31.4,77,62,43,30.04,29.54,17,10,29,0.02
2013-4-29,62.2,50.5,40.6,40.1,35.1,31.0,78,58,33,30.04,29.54,14,8,27,0.00
2013-4-30,60.3,48.8,37.2,36.6,32.1,27.3,75,54,29,30.28,30.04,10,4,16,0.01
2013-5-1,64.9,52.1,43.9,45.4,36.6,28.5,72,57,32,30.26,30.06,14,6,23,0.01
2013-5-2,60.3,50.9,41.9,41.8,38.1,34.2,76,62,44,30.26,29.96,14,5,24,0.00
2013-5-3,57.6,52.1,45.3,49.0,45.1,39.5,87,77,68,29.96,29.62,16,7,26,0.15
2013-5-4,55.0,48.4,38.5,41.7,38.4,33.0,83,69,48,29.85,29.65,18,8,30,0.12
2013-5-5,68.0,58.1,50.2,54.1,47.4,40.8,76,68,52,30.01,29.85,15,6,27,0.00
2013-5-6,63.7,56.7,50.9,51.6,48.0,44.5,82,73,63,30.03,29.97,11,4,17,0.00
2013-5-7,70.9,56.7,42.3,54.0,45.4,38.7,92,68,46,30.05,29.88,8,2,13,0.00
2013-5-8,59.4,52.4,48.4,50.2,45.2,40.8,87,77,62,29.88,29.48,11,4,21,0.00
2013-5-9,59.9,50.2,44.4,44.9,42.6,39.1,87,76,51,29.52,29.33,9,3,15,0.11
2013-5-10,63.7,52.8,44.6,49.8,44.5,37.1,89,75,51,29.60,29.33,14,5,28,0.07
2013-5-11,59.4,50.5,41.9,49.4,42.6,36.8,83,75,58,29.68,29.44,15,6,26,0.07
2013-5-12,57.7,50.7,43.0,48.0,42.4,36.8,85,73,59,29.73,29.51,14,6,24,0.00
2013-5-13,52.9,46.4,39.4,45.0,38.2,34.2,85,73,61,29.56,29.36,19,9,29,0.11
2013-5-14,58.3,49.9,43.5,43.0,39.0,34.8,78,67,52,29.39,29.31,17,9,28,0.02
2013-5-15,57.6,47.4,38.3,44.1,39.3,32.4,84,74,58,29.39,29.26,8,2,13,0.20
2013-5-16,58.5,49.7,39.7,45.4,40.6,35.8,89,72,52,29.69,29.34,11,4,16,0.00
2013-5-17,66.2,53.3,43.3,45.6,41.1,38.3,86,65,43,29.84,29.69,7,2,12,0.01
2013-5-18,61.5,56.2,52.9,54.3,49.2,41.6,88,78,64,29.82,29.66,11,3,31,0.25
2013-5-19,59.2,54.9,51.3,54.4,51.3,48.1,92,87,80,29.96,29.78,8,2,15,0.00
2013-5-20,71.4,62.1,53.2,62.6,55.8,48.2,91,80,66,30.01,29.89,8,2,12,0.05
2013-5-21,64.4,55.1,46.6,51.8,45.8,41.5,90,72,56,30.07,30.00,8,2,14,0.00
2013-5-22,66.4,53.8,42.4,45.0,39.1,32.0,79,59,33,30.07,29.97,12,4,20,0.02
2013-5-23,57.7,48.8,40.6,37.6,33.4,30.8,71,56,41,29.98,29.85,11,5,21,0.00
2013-5-24,61.3,52.5,44.4,41.7,37.9,31.8,74,58,43,30.20,29.86,10,4,22,0.06
2013-5-25,70.9,55.7,37.4,50.1,38.7,31.8,87,57,28,30.20,30.07,11,4,19,0.00
2013-5-26,67.5,56.9,43.7,50.0,43.8,35.1,78,62,48,30.09,29.74,9,4,15,0.00
2013-5-27,56.5,53.0,50.0,45.1,43.1,37.4,79,69,60,29.74,29.44,12,5,19,0.01
2013-5-28,61.9,54.1,48.2,49.4,45.7,40.8,85,73,59,29.78,29.51,8,3,14,0.05
2013-5-29,68.0,58.2,46.6,53.6,47.3,40.7,81,68,56,29.88,29.78,6,2,13,0.00
2013-5-30,64.9,59.2,50.9,52.0,46.3,41.2,76,62,55,30.06,29.84,7,2,12,0.00
2013-5-31,78.8,60.5,48.4,56.2,48.9,42.9,86,68,37,30.15,30.02,11,3,17,0.00
2013-6-1,66.0,56.5,48.9,51.8,44.8,36.2,87,67,47,30.26,30.15,14,3,21,0.06
2013-6-2,68.4,56.7,40.5,45.7,40.8,32.5,79,57,40,30.41,30.26,10,3,14,0.02
2013-6-3,71.2,59.2,44.8,56.0,48.2,38.2,83,68,54,30.50,30.40,8,2,12,0.00
2013-6-4,69.1,61.3,54.0,52.8,49.0,46.3,78,65,49,30.50,30.32,8,2,12,0.00
2013-6-5,62.6,56.0,52.0,52.6,48.3,44.6,87,76,65,30.32,30.16,8,3,13,0.00
2013-6-6,68.7,58.8,52.5,52.4,48.2,45.9,79,69,55,30.26,30.17,9,3,13,0.00
2013-6-7,68.4,57.0,48.7,54.2,47.7,42.8,85,72,58,30.34,30.26,9,3,14,0.00
2013-6-8,70.9,57.3,44.6,53.0,46.9,38.3,86,69,51,30.32,30.14,10,3,15,0.00
2013-6-9,65.3,57.9,53.1,51.3,48.7,46.4,82,72,59,30.14,30.01,12,4,18,0.00
2013-6-10,62.4,56.0,50.9,49.7,47.0,43.4,81,72,61,30.03,29.91,8,4,14,0.00
2013-6-11,65.1,56.5,48.0,53.7,49.6,42.8,86,78,63,29.91,29.69,8,3,12,0.04
2013-6-12,69.1,60.7,54.7,60.0,52.5,46.3,91,76,57,29.69,29.54,13,4,21,0.14
2013-6-13,73.2,55.4,-5.4,52.5,43.7,-38.9,83,66,17,29.74,29.51,102,5,102,12.14
2013-6-14,70.2,59.0,48.0,51.0,46.6,41.2,84,64,46,29.78,29.58,13,4,24,0.07
2013-6-15,63.0,56.2,51.4,49.3,46.5,42.8,83,71,52,29.58,29.40,14,5,23,0.04
2013-6-16,66.0,57.4,48.2,59.6,48.8,44.2,99,74,55,29.98,29.52,5,3,34,0.01
2013-6-17,71.1,60.8,52.9,56.5,50.8,46.5,83,70,56,30.06,29.98,11,3,16,0.00
2013-6-18,67.8,61.4,54.7,55.2,52.4,48.6,84,73,62,30.03,29.89,7,1,11,0.00
2013-6-19,75.2,62.5,52.7,51.1,47.6,43.5,82,61,36,30.01,29.92,11,4,21,0.00
2013-6-20,72.7,62.7,50.9,54.2,50.0,42.7,79,64,48,30.00,29.78,8,3,16,0.00
2013-6-21,71.1,62.4,57.7,60.2,53.2,45.6,86,73,55,29.79,29.60,8,2,15,0.08
2013-6-22,65.5,59.8,54.0,55.8,50.3,47.2,82,71,60,29.59,29.26,11,5,18,0.08
2013-6-23,67.5,58.6,51.1,58.6,49.9,43.7,84,73,62,29.86,29.31,11,4,21,0.08
2013-6-24,68.4,59.0,51.1,48.4,45.0,42.0,77,60,44,30.22,29.87,8,3,16,0.01
2013-6-25,68.5,58.4,45.3,49.3,45.4,38.5,81,63,44,30.35,30.23,8,2,14,0.00
2013-6-26,74.1,59.9,51.1,51.6,47.1,43.1,83,64,38,30.40,30.34,8,2,13,0.00
2013-6-27,69.8,58.7,47.7,57.7,50.6,41.5,85,75,63,30.40,30.08,7,2,11,0.01
2013-6-28,73.6,61.5,54.0,61.6,53.7,42.6,90,77,56,30.08,29.82,13,5,21,0.15
2013-6-29,69.1,59.0,50.5,53.4,46.9,42.3,79,65,47,30.10,30.01,10,5,17,0.00
2013-6-30,70.9,62.7,54.9,54.9,51.5,44.7,79,67,55,30.06,29.80,20,8,31,0.00
2013-7-1,72.0,59.7,49.5,48.9,43.8,37.6,81,58,34,29.87,29.79,11,5,20,0.00
2013-7-2,59.5,55.2,48.7,52.7,48.1,38.5,87,77,66,29.85,29.42,8,2,12,0.14
2013-7-3,71.8,63.3,55.9,60.2,53.7,48.9,91,72,52,29.78,29.42,11,4,19,0.00
2013-7-4,70.7,63.4,56.8,63.2,52.4,45.5,87,68,51,30.10,29.69,18,6,27,0.17
2013-7-5,75.9,63.9,56.1,54.6,50.8,46.3,80,63,45,30.34,30.10,14,5,22,0.00
2013-7-6,81.9,66.4,51.3,57.5,51.6,46.3,87,62,36,30.38,30.26,13,4,21,0.00
2013-7-7,77.0,67.4,59.2,59.0,55.5,51.6,79,66,51,30.60,30.38,9,4,14,0.00
2013-7-8,73.2,65.1,58.3,60.0,56.0,51.4,85,73,60,30.61,30.45,6,2,9,0.00
2013-7-9,90.5,70.0,57.4,67.9,57.4,51.9,90,67,36,30.45,30.32,10,2,15,0.00
2013-7-10,68.5,62.2,58.6,55.7,53.1,50.4,81,73,60,30.42,30.34,7,3,11,0.00
2013-7-11,75.2,63.5,56.5,60.8,54.9,50.7,84,74,59,30.37,30.24,8,2,12,0.00
2013-7-12,92.8,73.5,55.8,68.2,58.5,51.2,91,64,35,30.25,30.15,8,3,12,0.00
2013-7-13,73.6,64.9,59.2,64.6,56.9,52.3,91,76,61,30.31,30.19,11,3,16,0.00
2013-7-14,80.8,67.2,58.6,58.3,52.5,45.5,86,62,37,30.31,30.12,12,4,21,0.00
2013-7-15,79.3,67.0,56.3,56.7,52.9,45.6,81,62,45,30.16,30.11,13,6,21,0.00
2013-7-16,80.4,70.8,62.1,62.0,56.7,51.5,81,62,44,30.22,30.14,13,5,21,0.00
2013-7-17,80.4,69.6,56.8,59.8,54.9,51.3,86,62,40,30.30,30.21,11,4,18,0.00
2013-7-18,89.6,74.8,62.6,65.6,59.6,54.3,82,61,39,30.35,30.28,8,3,16,0.00
2013-7-19,79.0,68.2,56.1,61.4,55.7,49.7,84,66,47,30.39,30.35,10,3,16,0.00
2013-7-20,76.8,66.2,60.3,59.9,56.2,53.0,82,71,54,30.37,30.28,12,3,18,0.00
2013-7-21,74.3,64.8,60.6,58.6,54.7,52.5,78,70,54,30.30,30.14,11,3,17,0.00
2013-7-22,69.1,64.0,61.2,59.7,57.2,54.2,84,79,71,30.13,29.99,7,2,10,0.00
2013-7-23,75.4,66.7,62.8,71.8,61.5,57.6,94,84,73,29.99,29.84,7,2,12,0.34
2013-7-24,79.0,69.3,63.1,68.7,62.4,57.9,95,80,58,29.88,29.84,8,2,13,0.01
2013-7-25,73.8,65.5,58.5,67.2,60.7,54.3,93,85,73,29.87,29.78,6,1,10,0.24
2013-7-26,82.0,67.7,59.2,65.3,58.5,53.0,92,74,52,29.82,29.79,7,2,10,0.00
2013-7-27,81.0,65.4,53.4,63.8,56.5,49.0,91,74,47,29.81,29.65,7,2,13,0.01
2013-7-28,66.6,62.9,59.9,61.5,58.8,55.4,93,86,77,29.66,29.47,6,2,10,0.45
2013-7-29,76.5,63.9,54.0,67.0,57.7,50.2,94,81,60,29.69,29.59,8,2,10,0.05
2013-7-30,74.5,63.0,54.7,61.8,54.4,49.5,90,75,45,29.75,29.69,10,4,17,0.12
2013-7-31,75.4,63.4,52.5,59.4,52.7,48.5,90,70,45,29.84,29.75,8,2,13,0.05
2013-8-1,74.3,66.7,60.4,67.8,62.2,56.7,96,86,71,29.76,29.58,7,2,11,0.20
2013-8-2,77.5,68.2,61.9,66.0,57.8,51.2,92,72,47,29.59,29.51,14,4,21,0.07
2013-8-3,71.6,64.3,58.8,54.3,51.8,47.7,80,65,45,29.82,29.54,17,7,29,0.01
2013-8-4,75.0,63.8,50.9,56.8,51.3,45.1,87,66,44,29.86,29.81,12,4,19,0.00
2013-8-5,66.9,60.9,53.1,58.2,53.9,47.2,87,78,69,29.86,29.72,4,1,6,0.00
2013-8-6,72.3,60.3,47.8,55.9,49.0,43.6,89,68,45,29.96,29.80,8,2,14,0.00
2013-8-7,74.1,62.0,50.9,59.4,52.1,45.6,88,71,48,30.04,29.93,6,1,9,0.00
2013-8-8,77.4,63.5,52.7,61.8,54.7,47.4,89,74,50,30.04,29.90,8,1,11,0.01
2013-8-9,74.3,64.3,56.3,61.9,54.1,47.0,85,71,53,30.06,29.85,9,3,17,0.01
2013-8-10,69.1,61.3,51.1,52.6,48.6,42.7,80,64,51,30.08,29.94,11,3,16,0.00
2013-8-11,74.5,61.7,53.2,53.7,48.7,45.4,83,64,38,29.95,29.80,14,5,24,0.00
2013-8-12,77.7,61.7,52.7,55.6,49.6,45.8,84,67,37,29.98,29.79,8,3,15,0.04
2013-8-13,72.7,61.7,51.1,52.4,47.4,44.3,82,62,41,30.11,29.97,8,2,11,0.00
2013-8-14,74.5,64.4,52.7,59.0,52.7,44.8,80,67,52,30.11,29.91,8,2,14,0.00
2013-8-15,75.2,66.3,61.7,66.7,60.0,56.0,90,81,67,29.91,29.70,11,3,18,0.14
2013-8-16,75.2,64.9,54.5,60.1,55.2,48.3,89,72,51,29.84,29.69,11,4,20,0.00
2013-8-17,72.3,61.8,54.3,64.7,54.8,48.1,88,78,60,29.82,29.35,13,4,20,0.19
2013-8-18,69.3,60.3,54.1,53.3,49.5,46.1,83,69,50,29.76,29.39,15,6,28,0.00
2013-8-19,72.9,61.3,53.1,54.1,49.3,45.7,82,66,45,30.14,29.75,13,5,21,0.00
2013-8-20,70.5,61.2,52.3,56.7,52.4,45.7,87,74,56,30.21,30.13,9,3,14,0.07
2013-8-21,76.1,66.1,59.5,65.0,58.1,54.7,90,77,59,30.13,29.99,9,2,14,0.02
2013-8-22,73.8,64.2,60.3,65.6,58.2,54.8,88,81,67,30.11,30.01,6,2,11,0.04
2013-8-23,72.5,64.5,53.6,66.3,58.7,50.4,94,82,70,30.01,29.84,6,1,9,0.01
2013-8-24,69.1,63.1,59.7,60.1,57.0,54.6,89,81,69,29.95,29.86,5,1,8,0.01
2013-8-25,73.8,64.3,57.7,64.0,58.4,52.9,91,82,68,30.15,29.94,4,1,8,0.01
2013-8-26,74.1,63.2,54.3,64.9,57.1,50.2,92,81,66,30.16,30.07,6,1,10,4.63
2013-8-27,81.1,64.8,53.2,62.4,55.7,49.2,90,74,49,30.19,30.04,7,2,14,0.00
2013-8-28,68.4,64.7,58.3,56.7,53.7,50.0,78,68,62,30.21,30.07,7,3,13,0.00
2013-8-29,72.1,64.1,55.0,59.1,55.1,47.6,84,73,58,30.00,29.97,10,5,19,0.00
2013-8-30,72.3,61.6,52.3,60.3,53.5,41.7,88,75,64,30.01,29.78,18,6,34,0.00
2013-8-31,69.8,57.7,48.4,49.0,43.3,36.3,82,61,37,30.23,30.03,14,5,26,0.00
2013-9-1,62.2,58.9,55.0,54.1,49.3,44.3,78,71,63,30.22,30.03,17,8,27,0.00
2013-9-2,77.5,67.5,61.2,60.7,57.2,54.2,81,70,54,30.20,30.00,18,8,29,0.00
2013-9-3,78.6,67.6,60.3,61.7,56.5,50.8,84,69,46,30.22,30.15,11,5,21,0.00
2013-9-4,75.4,63.2,52.5,59.8,50.3,45.1,89,65,42,30.16,29.89,11,3,19,0.00
2013-9-5,70.3,59.8,49.8,54.1,48.7,43.1,81,68,46,29.89,29.82,8,2,11,0.00
2013-9-6,60.3,54.6,49.6,48.0,45.9,43.1,84,73,57,29.90,29.85,6,1,13,0.34
2013-9-7,67.1,57.5,50.0,58.2,50.4,45.0,91,78,60,29.92,29.71,12,5,25,0.13
2013-9-8,68.9,56.2,43.5,52.7,46.2,38.3,87,70,50,29.97,29.91,7,2,11,0.00
2013-9-9,70.2,55.3,49.1,54.8,48.2,43.3,88,77,49,30.13,29.92,7,1,14,0.02
2013-9-10,73.9,59.3,49.3,51.9,46.9,43.2,83,66,40,30.21,30.12,8,3,17,0.01
2013-9-11,67.3,59.1,54.0,57.7,50.9,46.4,82,74,67,30.20,30.04,4,1,8,0.04
2013-9-12,73.4,63.5,58.1,59.2,55.9,53.6,87,77,53,30.05,29.83,11,3,18,0.07
2013-9-13,61.0,55.2,50.2,57.1,49.3,43.8,89,81,67,30.07,29.91,4,1,9,0.24
2013-9-14,71.4,56.4,45.7,49.9,44.7,40.5,85,67,39,30.03,29.88,7,2,11,0.00
2013-9-15,62.2,54.0,36.1,58.3,46.1,31.2,87,75,58,29.88,29.11,18,8,27,0.15
2013-9-16,61.9,50.3,42.3,47.1,41.7,37.2,85,73,55,29.25,29.20,14,6,22,0.00
2013-9-17,65.5,53.5,45.3,48.1,42.4,38.0,76,67,49,29.33,29.21,14,6,21,0.00
2013-9-18,67.3,52.1,40.3,49.8,41.2,35.5,87,68,43,29.68,29.34,11,3,21,0.00
2013-9-19,55.6,50.3,45.3,52.4,46.1,38.6,89,86,76,29.72,29.50,9,2,16,0.24
2013-9-20,64.2,55.9,-9.2,54.9,48.3,-20.6,93,77,56,29.99,29.72,103,6,103,1.15
2013-9-21,67.3,60.8,53.8,59.4,53.2,47.1,84,76,71,30.05,29.98,103,4,103,0.00
2013-9-22,76.3,66.7,59.0,60.7,57.4,52.8,86,73,52,30.25,30.04,105,7,105,0.00
2013-9-23,68.2,59.5,50.9,62.1,53.8,47.2,92,82,70,30.24,30.10,5,1,8,0.00
2013-9-24,64.2,57.7,49.8,60.4,53.7,45.6,92,87,82,30.09,29.94,6,1,9,0.00
2013-9-25,58.5,56.0,47.3,55.2,50.6,41.1,90,82,69,30.03,29.88,5,1,11,0.00
2013-9-26,65.8,55.1,46.6,53.9,47.8,41.7,89,77,59,30.10,30.03,8,2,14,0.00
2013-9-27,63.9,58.0,54.5,56.7,52.1,49.0,88,81,72,30.04,29.91,2,0,4,0.01
2013-9-28,72.9,60.4,53.4,61.6,53.1,49.3,91,78,58,29.91,29.84,5,2,10,0.00
2013-9-29,64.8,57.9,54.0,56.3,51.3,48.8,87,79,66,29.93,29.89,9,5,15,0.00
2013-9-30,63.9,58.0,55.6,53.4,51.1,48.8,83,78,67,29.92,29.83,11,6,17,0.00
2013-10-1,61.3,56.8,54.1,51.1,48.0,44.7,79,72,63,29.91,29.84,13,8,24,0.00
2013-10-2,59.0,57.1,54.7,54.6,52.3,49.0,89,84,79,29.86,29.76,11,6,23,0.11
2013-10-3,62.6,58.9,56.8,61.7,57.2,54.2,97,94,89,29.77,29.51,8,4,13,0.38
2013-10-4,66.0,59.8,53.8,65.7,58.4,50.7,99,95,82,29.76,29.50,7,1,14,0.12
2013-10-5,65.8,57.5,52.7,58.1,52.1,47.4,95,83,69,30.06,29.76,9,3,15,0.00
2013-10-6,65.5,60.6,52.5,60.1,55.6,47.4,89,84,76,30.05,29.99,9,3,17,0.00
2013-10-7,70.5,64.4,60.3,61.3,57.8,55.2,89,80,66,30.03,29.95,13,5,24,0.00
2013-10-8,68.0,60.5,53.6,57.8,53.3,45.7,88,77,65,30.10,29.93,14,6,24,0.01
2013-10-9,60.8,52.3,45.9,51.8,41.2,33.2,87,67,43,30.08,29.84,14,6,27,0.00
2013-10-10,58.8,48.0,41.0,42.0,35.1,31.8,79,61,46,30.41,30.08,7,2,14,0.00
2013-10-11,55.2,50.6,45.7,42.7,39.2,34.6,70,65,60,30.49,30.40,6,2,12,0.00
2013-10-12,60.6,53.0,47.5,49.5,44.4,40.3,81,73,61,30.47,30.26,6,2,11,0.00
2013-10-13,60.4,53.3,48.2,50.1,46.7,42.5,88,78,64,30.27,30.02,8,2,17,0.17
2013-10-14,59.0,53.6,50.7,53.7,49.3,46.2,90,85,74,30.02,29.91,6,2,10,0.06
2013-10-15,56.5,51.3,44.4,49.4,46.4,39.6,87,83,77,29.98,29.87,5,1,11,0.00
2013-10-16,55.0,50.1,42.3,50.3,46.4,38.7,92,87,82,29.96,29.56,13,4,21,0.41
2013-10-17,55.4,51.0,48.0,54.1,49.2,45.8,96,94,91,29.85,29.59,4,1,8,0.15
2013-10-18,55.8,54.5,52.0,53.9,51.1,48.4,94,88,85,29.99,29.69,12,6,21,0.27
2013-10-19,57.6,55.3,52.9,57.3,54.5,52.3,99,97,94,29.69,29.42,8,3,14,0.61
2013-10-20,62.1,54.6,47.5,61.8,53.4,46.9,99,96,88,29.45,29.39,6,1,10,0.08
2013-10-21,59.0,55.4,50.5,57.9,53.1,48.6,96,92,84,29.49,29.23,6,2,12,0.30
2013-10-22,61.5,57.9,55.6,61.2,57.4,54.2,99,98,95,29.24,29.08,4,1,8,0.47
2013-10-23,63.1,55.0,46.6,60.7,50.7,39.6,99,86,65,29.50,28.95,17,5,31,0.07
2013-10-24,64.2,51.3,45.1,50.9,43.6,38.0,88,76,56,29.88,29.50,10,3,17,0.00
2013-10-25,60.6,55.5,50.0,59.8,52.2,45.4,97,89,82,29.84,29.27,12,4,18,0.24
2013-10-26,57.9,54.0,48.2,53.8,48.8,44.3,91,83,70,29.40,29.10,11,5,24,0.17
2013-10-27,57.7,51.6,44.8,50.0,46.3,41.4,92,82,68,29.14,28.78,20,7,34,0.18
2013-10-28,60.6,51.3,46.9,51.6,45.8,41.3,89,82,64,29.26,28.84,12,5,23,0.02
2013-10-29,60.1,48.8,43.2,46.8,40.7,36.6,86,74,54,29.80,29.26,15,5,22,0.00
2013-10-30,56.3,47.2,38.1,49.7,41.7,33.6,89,81,68,29.88,29.55,13,3,21,0.02
2013-10-31,59.2,48.6,42.3,48.5,42.5,38.1,88,80,60,29.77,29.55,17,5,26,0.14
2013-11-1,57.7,47.1,39.7,46.4,40.8,35.3,87,79,61,29.56,29.50,16,5,27,0.04
2013-11-2,50.4,42.6,34.0,46.8,38.7,30.5,91,86,78,29.52,28.79,11,3,24,0.11
2013-11-3,58.3,45.9,35.6,41.5,36.1,30.1,85,70,44,29.21,28.84,12,6,24,0.01
2013-11-4,59.7,42.2,32.4,44.6,33.4,26.4,88,72,48,29.32,29.14,7,2,12,0.00
2013-11-5,51.8,38.7,29.3,45.1,33.1,25.1,89,81,68,29.28,29.11,6,2,11,0.01
2013-11-6,49.6,41.5,36.1,45.6,37.6,32.7,89,86,80,29.31,29.17,8,2,12,0.01
2013-11-7,52.9,44.1,36.5,43.9,38.4,33.6,92,81,62,29.41,29.31,19,5,29,0.19
2013-11-8,56.3,44.6,36.3,46.5,39.4,32.3,87,82,66,29.49,29.40,9,3,17,0.02
2013-11-9,48.4,38.7,33.6,44.9,34.6,29.3,92,85,75,29.59,29.44,7,2,11,0.01
2013-11-10,55.6,42.9,31.6,43.8,35.0,27.7,89,74,55,30.09,29.59,8,2,14,0.01
2013-11-11,58.3,49.1,44.2,53.6,42.9,36.1,90,79,69,29.99,29.77,12,3,18,0.04
2013-11-12,56.8,46.8,41.9,46.1,40.3,35.9,89,78,63,30.30,29.98,12,4,23,0.02
2013-11-13,51.4,46.6,40.5,44.6,40.6,36.5,90,80,66,30.33,29.72,15,6,24,0.04
2013-11-14,54.3,45.9,40.1,43.5,35.7,30.1,82,68,50,30.43,29.72,10,4,18,0.00
2013-11-15,54.3,48.7,40.1,48.3,42.6,31.8,83,80,72,30.42,30.28,13,5,21,0.00
2013-11-16,57.7,52.8,44.8,48.8,46.3,38.6,84,79,71,30.30,30.14,15,7,28,0.00
2013-11-17,51.8,42.4,33.3,47.9,37.7,29.5,91,84,75,30.33,29.87,3,0,5,0.05
2013-11-18,52.0,41.3,32.9,50.3,36.5,27.8,94,83,64,29.87,29.70,6,2,11,0.01
2013-11-19,49.1,37.3,27.1,37.2,29.5,23.2,86,74,50,29.96,29.51,14,3,25,0.01
2013-11-20,49.5,42.9,37.2,41.1,35.7,30.7,85,76,65,29.73,29.31,12,5,20,0.07
2013-11-21,45.9,39.4,34.7,33.0,29.4,25.1,73,67,59,30.11,29.73,8,2,18,0.00
2013-11-22,49.8,37.4,31.6,33.8,28.0,23.8,79,69,52,30.23,30.11,4,2,8,0.00
2013-11-23,55.2,40.0,33.3,44.8,32.9,27.8,87,76,58,30.39,30.22,4,2,8,0.00
2013-11-24,50.5,40.0,31.1,43.9,33.9,26.1,87,79,64,30.66,30.39,3,1,7,0.00
2013-11-25,50.2,35.7,28.4,41.0,30.2,24.7,89,81,65,30.68,30.64,4,1,5,0.01
2013-11-26,50.0,43.6,33.4,48.1,40.9,29.1,94,90,83,30.65,30.44,10,3,16,0.08
2013-11-27,60.1,51.2,47.5,54.6,48.0,44.3,96,89,73,30.49,30.40,9,4,16,0.01
2013-11-28,48.7,42.6,35.6,47.1,39.4,33.0,94,88,83,30.58,30.29,8,1,14,0.01
2013-11-29,52.2,45.8,41.9,45.9,38.6,31.5,90,76,63,30.29,30.01,16,5,29,0.11
2013-11-30,49.6,42.9,37.2,42.4,35.9,29.9,87,76,65,30.34,30.24,8,3,14,0.00
2013-12-1,58.1,45.6,34.5,51.6,40.4,27.4,92,82,66,30.56,30.30,8,2,13,0.01
2013-12-2,48.6,43.5,35.8,46.1,39.5,31.9,92,86,78,30.55,30.27,12,3,21,0.00
2013-12-3,52.5,49.3,40.6,46.2,43.9,35.9,86,81,78,30.28,30.05,14,7,22,0.15
2013-12-4,49.5,40.6,34.3,43.9,35.6,31.1,92,83,70,30.22,29.98,14,4,23,0.01
2013-12-5,48.6,41.4,32.2,45.2,34.7,23.5,89,77,64,30.06,29.28,31,10,59,0.40
2013-12-6,44.4,35.0,30.4,31.2,25.9,22.5,76,69,56,30.29,30.06,4,1,9,0.00
2013-12-7,51.4,41.6,35.1,46.7,36.5,28.3,86,82,76,30.19,29.85,18,3,25,0.00
2013-12-8,56.5,53.2,50.5,52.0,48.7,44.8,88,85,79,29.88,29.78,17,9,28,0.00
2013-12-9,56.7,54.2,50.7,52.0,48.4,43.2,86,81,72,30.14,29.88,15,8,24,0.00
2013-12-10,57.6,53.1,50.7,49.3,45.3,42.2,79,75,70,30.17,30.09,15,6,21,0.00
2013-12-11,59.0,51.0,39.4,50.2,43.9,33.1,80,77,69,30.20,29.98,12,4,21,0.00
2013-12-12,54.9,50.6,41.0,51.4,46.1,35.6,91,85,72,29.98,29.87,13,3,19,0.27
2013-12-13,57.0,51.8,46.0,53.1,47.1,37.9,94,84,72,29.89,29.67,13,4,23,0.04
2013-12-14,54.1,49.0,42.3,48.6,41.7,34.7,83,76,68,29.86,29.37,21,10,39,0.03
2013-12-15,52.0,45.7,40.3,44.8,39.9,35.1,89,80,70,29.80,29.46,17,5,30,0.22
2013-12-16,49.1,44.6,39.7,45.7,38.1,33.8,89,78,70,29.90,29.45,16,8,30,0.08
2013-12-17,49.5,42.3,34.3,40.4,35.0,29.9,87,76,66,30.02,29.73,13,5,20,0.01
2013-12-18,53.1,48.9,44.8,47.2,41.1,33.7,82,74,63,29.72,28.72,24,8,40,0.04
2013-12-19,47.7,41.7,38.1,36.2,32.9,30.4,81,71,61,29.41,28.75,26,11,40,0.07
2013-12-20,53.4,46.2,40.1,48.0,39.6,32.7,84,78,72,29.67,29.29,26,9,46,0.25
2013-12-21,51.8,46.8,40.5,45.2,39.2,35.3,84,75,67,29.43,29.20,18,9,30,0.12
2013-12-22,44.2,40.9,36.5,37.5,34.7,30.8,85,79,72,29.46,29.23,18,9,30,0.15
2013-12-23,50.9,43.3,37.0,45.2,37.6,30.5,87,80,77,29.46,28.27,18,7,27,0.09
2013-12-24,50.9,44.1,41.5,44.3,33.1,28.5,79,65,50,28.37,28.17,28,16,42,0.02
2013-12-25,48.9,44.5,41.7,36.4,34.9,33.3,75,69,61,29.01,28.37,30,12,41,0.01
2013-12-26,48.9,41.0,36.0,40.0,34.2,29.8,85,77,66,29.23,28.65,13,3,25,0.00
2013-12-27,48.9,46.2,41.7,42.0,39.4,34.7,82,77,72,28.66,28.12,24,13,40,0.11
2013-12-28,47.5,43.5,40.8,38.9,36.6,34.5,81,77,70,29.40,28.61,21,9,35,0.02
2013-12-29,48.6,41.6,36.1,45.1,36.1,32.0,90,81,73,29.74,29.41,13,4,21,0.06
2013-12-30,50.9,44.5,37.9,46.6,40.8,34.9,90,87,80,29.56,29.20,8,3,18,0.60
2013-12-31,47.3,43.5,36.5,43.0,39.2,33.9,93,85,76,29.56,29.21,11,4,21,0.04
2014-1-1,49.3,44.6,41.9,46.5,39.9,36.5,90,83,78,29.25,28.64,18,5,30,0.06
2014-1-2,50.5,45.4,42.6,45.2,39.7,35.3,88,81,70,29.09,28.63,15,6,24,0.01